sensor_id;sensor_type;location;lat;lon;timestamp;P1;durP1;ratioP1;P2;durP2;ratioP2
21671;SDS011;10997;52.242;8.168;2024-01-15T00:02:38;25.42;;;11.70;;
21671;SDS011;10997;52.242;8.168;2024-01-15T00:07:39;20.30;;;10.02;;
21671;SDS011;10997;52.242;8.168;2024-01-15T00:12:39;30.45;;;11.32;;
21671;SDS011;10997;52.242;8.168;2024-01-15T00:17:40;19.73;;;9.10;;
21671;SDS011;10997;52.242;8.168;2024-01-15T00:22:40;18.50;;;9.23;;
21671;SDS011;10997;52.242;8.168;2024-01-15T00:27:41;21.33;;;8.75;;
21671;SDS011;10997;52.242;8.168;2024-01-15T00:32:42;16.83;;;7.07;;
21671;SDS011;10997;52.242;8.168;2024-01-15T00:37:42;18.85;;;6.63;;
21671;SDS011;10997;52.242;8.168;2024-01-15T00:42:43;21.05;;;5.80;;
21671;SDS011;10997;52.242;8.168;2024-01-15T00:47:43;21.35;;;5.80;;
21671;SDS011;10997;52.242;8.168;2024-01-15T00:52:44;12.98;;;4.65;;
21671;SDS011;10997;52.242;8.168;2024-01-15T00:57:45;13.27;;;4.57;;
21671;SDS011;10997;52.242;8.168;2024-01-15T01:02:45;17.23;;;4.35;;
21671;SDS011;10997;52.242;8.168;2024-01-15T01:07:46;15.77;;;3.90;;
21671;SDS011;10997;52.242;8.168;2024-01-15T01:12:47;16.73;;;3.78;;
21671;SDS011;10997;52.242;8.168;2024-01-15T01:17:47;19.75;;;4.28;;
21671;SDS011;10997;52.242;8.168;2024-01-15T01:22:48;18.60;;;3.97;;
21671;SDS011;10997;52.242;8.168;2024-01-15T01:27:48;17.23;;;4.07;;
21671;SDS011;10997;52.242;8.168;2024-01-15T01:32:49;15.50;;;3.75;;
21671;SDS011;10997;52.242;8.168;2024-01-15T01:37:50;15.90;;;4.88;;
21671;SDS011;10997;52.242;8.168;2024-01-15T01:42:50;15.38;;;4.57;;
21671;SDS011;10997;52.242;8.168;2024-01-15T01:47:51;16.92;;;4.68;;
21671;SDS011;10997;52.242;8.168;2024-01-15T01:52:52;10.88;;;3.90;;
21671;SDS011;10997;52.242;8.168;2024-01-15T01:57:53;15.65;;;4.07;;
21671;SDS011;10997;52.242;8.168;2024-01-15T02:02:54;15.82;;;3.60;;
21671;SDS011;10997;52.242;8.168;2024-01-15T02:07:55;12.85;;;3.58;;
21671;SDS011;10997;52.242;8.168;2024-01-15T02:12:56;19.90;;;3.63;;
21671;SDS011;10997;52.242;8.168;2024-01-15T02:18:01;20.38;;;2.95;;
21671;SDS011;10997;52.242;8.168;2024-01-15T02:23:09;8.30;;;2.72;;
21671;SDS011;10997;52.242;8.168;2024-01-15T02:28:12;16.60;;;2.65;;
21671;SDS011;10997;52.242;8.168;2024-01-15T02:33:16;13.52;;;2.42;;
21671;SDS011;10997;52.242;8.168;2024-01-15T02:38:17;16.45;;;2.30;;
21671;SDS011;10997;52.242;8.168;2024-01-15T02:43:18;13.23;;;2.60;;
21671;SDS011;10997;52.242;8.168;2024-01-15T02:48:19;8.77;;;2.50;;
21671;SDS011;10997;52.242;8.168;2024-01-15T02:53:19;13.38;;;2.45;;
21671;SDS011;10997;52.242;8.168;2024-01-15T02:58:21;12.60;;;2.47;;
21671;SDS011;10997;52.242;8.168;2024-01-15T03:03:21;11.40;;;2.40;;
21671;SDS011;10997;52.242;8.168;2024-01-15T03:08:22;23.90;;;3.22;;
21671;SDS011;10997;52.242;8.168;2024-01-15T03:13:23;17.75;;;2.83;;
21671;SDS011;10997;52.242;8.168;2024-01-15T03:18:23;11.02;;;2.80;;
21671;SDS011;10997;52.242;8.168;2024-01-15T03:23:24;14.65;;;2.80;;
21671;SDS011;10997;52.242;8.168;2024-01-15T03:28:24;12.55;;;3.03;;
21671;SDS011;10997;52.242;8.168;2024-01-15T03:33:25;14.43;;;2.88;;
21671;SDS011;10997;52.242;8.168;2024-01-15T03:38:27;11.35;;;2.60;;
21671;SDS011;10997;52.242;8.168;2024-01-15T03:43:28;11.90;;;2.85;;
21671;SDS011;10997;52.242;8.168;2024-01-15T03:48:29;16.85;;;2.90;;
21671;SDS011;10997;52.242;8.168;2024-01-15T03:53:29;11.52;;;2.53;;
21671;SDS011;10997;52.242;8.168;2024-01-15T03:58:31;14.43;;;1.95;;
21671;SDS011;10997;52.242;8.168;2024-01-15T04:03:31;16.20;;;2.78;;
21671;SDS011;10997;52.242;8.168;2024-01-15T04:08:32;12.80;;;2.28;;
21671;SDS011;10997;52.242;8.168;2024-01-15T04:13:32;12.80;;;2.55;;
21671;SDS011;10997;52.242;8.168;2024-01-15T04:18:33;9.75;;;2.28;;
21671;SDS011;10997;52.242;8.168;2024-01-15T04:23:34;10.02;;;2.05;;
21671;SDS011;10997;52.242;8.168;2024-01-15T04:28:34;9.27;;;2.47;;
21671;SDS011;10997;52.242;8.168;2024-01-15T04:33:35;11.57;;;2.28;;
21671;SDS011;10997;52.242;8.168;2024-01-15T04:38:36;11.73;;;2.28;;
21671;SDS011;10997;52.242;8.168;2024-01-15T04:43:36;9.65;;;2.53;;
21671;SDS011;10997;52.242;8.168;2024-01-15T04:48:37;12.65;;;2.40;;
21671;SDS011;10997;52.242;8.168;2024-01-15T04:53:37;9.13;;;2.92;;
21671;SDS011;10997;52.242;8.168;2024-01-15T04:58:38;11.93;;;2.85;;
21671;SDS011;10997;52.242;8.168;2024-01-15T05:03:39;7.38;;;1.70;;
21671;SDS011;10997;52.242;8.168;2024-01-15T05:08:39;14.77;;;2.50;;
21671;SDS011;10997;52.242;8.168;2024-01-15T05:13:40;10.68;;;1.98;;
21671;SDS011;10997;52.242;8.168;2024-01-15T05:18:41;13.02;;;2.05;;
21671;SDS011;10997;52.242;8.168;2024-01-15T05:23:41;14.02;;;2.22;;
21671;SDS011;10997;52.242;8.168;2024-01-15T05:28:42;7.68;;;2.15;;
21671;SDS011;10997;52.242;8.168;2024-01-15T05:33:42;8.98;;;2.00;;
21671;SDS011;10997;52.242;8.168;2024-01-15T05:38:43;6.85;;;1.60;;
21671;SDS011;10997;52.242;8.168;2024-01-15T05:43:44;8.13;;;1.73;;
21671;SDS011;10997;52.242;8.168;2024-01-15T05:48:44;7.85;;;1.58;;
21671;SDS011;10997;52.242;8.168;2024-01-15T05:53:45;11.05;;;1.70;;
21671;SDS011;10997;52.242;8.168;2024-01-15T05:58:46;8.68;;;2.22;;
21671;SDS011;10997;52.242;8.168;2024-01-15T06:03:46;8.50;;;2.05;;
21671;SDS011;10997;52.242;8.168;2024-01-15T06:08:47;7.13;;;2.42;;
21671;SDS011;10997;52.242;8.168;2024-01-15T06:13:48;10.25;;;2.47;;
21671;SDS011;10997;52.242;8.168;2024-01-15T06:18:49;13.85;;;2.38;;
21671;SDS011;10997;52.242;8.168;2024-01-15T06:23:49;6.18;;;2.28;;
21671;SDS011;10997;52.242;8.168;2024-01-15T06:28:50;10.02;;;2.17;;
21671;SDS011;10997;52.242;8.168;2024-01-15T06:33:51;7.50;;;2.40;;
21671;SDS011;10997;52.242;8.168;2024-01-15T06:38:51;9.55;;;2.40;;
21671;SDS011;10997;52.242;8.168;2024-01-15T06:43:52;8.45;;;2.30;;
21671;SDS011;10997;52.242;8.168;2024-01-15T06:48:52;7.43;;;2.70;;
21671;SDS011;10997;52.242;8.168;2024-01-15T06:53:53;11.40;;;3.08;;
21671;SDS011;10997;52.242;8.168;2024-01-15T06:58:54;11.40;;;3.10;;
21671;SDS011;10997;52.242;8.168;2024-01-15T07:03:54;8.10;;;2.60;;
21671;SDS011;10997;52.242;8.168;2024-01-15T07:08:55;9.82;;;2.90;;
21671;SDS011;10997;52.242;8.168;2024-01-15T07:13:55;17.42;;;3.10;;
21671;SDS011;10997;52.242;8.168;2024-01-15T07:18:56;11.55;;;2.90;;
21671;SDS011;10997;52.242;8.168;2024-01-15T07:23:57;10.32;;;2.70;;
21671;SDS011;10997;52.242;8.168;2024-01-15T07:28:57;12.13;;;2.60;;
21671;SDS011;10997;52.242;8.168;2024-01-15T07:33:58;13.57;;;2.80;;
21671;SDS011;10997;52.242;8.168;2024-01-15T07:39:00;12.52;;;2.83;;
21671;SDS011;10997;52.242;8.168;2024-01-15T07:44:00;7.30;;;2.20;;
21671;SDS011;10997;52.242;8.168;2024-01-15T07:49:02;6.40;;;2.63;;
21671;SDS011;10997;52.242;8.168;2024-01-15T07:54:03;9.50;;;2.30;;
21671;SDS011;10997;52.242;8.168;2024-01-15T07:59:04;6.95;;;2.38;;
21671;SDS011;10997;52.242;8.168;2024-01-15T08:04:05;8.63;;;2.70;;
21671;SDS011;10997;52.242;8.168;2024-01-15T08:09:05;7.18;;;2.72;;
21671;SDS011;10997;52.242;8.168;2024-01-15T08:14:06;7.10;;;2.35;;
21671;SDS011;10997;52.242;8.168;2024-01-15T08:19:08;4.60;;;2.00;;
21671;SDS011;10997;52.242;8.168;2024-01-15T08:24:08;7.22;;;2.50;;
21671;SDS011;10997;52.242;8.168;2024-01-15T08:29:09;4.28;;;2.00;;
21671;SDS011;10997;52.242;8.168;2024-01-15T08:34:10;7.20;;;2.20;;
21671;SDS011;10997;52.242;8.168;2024-01-15T08:39:10;5.93;;;2.47;;
21671;SDS011;10997;52.242;8.168;2024-01-15T08:44:11;7.70;;;3.22;;
21671;SDS011;10997;52.242;8.168;2024-01-15T08:49:12;8.07;;;4.30;;
21671;SDS011;10997;52.242;8.168;2024-01-15T08:54:12;7.50;;;4.60;;
21671;SDS011;10997;52.242;8.168;2024-01-15T08:59:13;11.20;;;5.35;;
21671;SDS011;10997;52.242;8.168;2024-01-15T09:04:14;8.32;;;5.05;;
21671;SDS011;10997;52.242;8.168;2024-01-15T09:09:14;10.13;;;4.85;;
21671;SDS011;10997;52.242;8.168;2024-01-15T09:14:15;12.98;;;5.78;;
21671;SDS011;10997;52.242;8.168;2024-01-15T09:19:16;13.55;;;6.22;;
21671;SDS011;10997;52.242;8.168;2024-01-15T09:24:16;14.60;;;6.47;;
21671;SDS011;10997;52.242;8.168;2024-01-15T09:29:17;13.15;;;5.95;;
21671;SDS011;10997;52.242;8.168;2024-01-15T09:34:18;15.05;;;6.45;;
21671;SDS011;10997;52.242;8.168;2024-01-15T09:39:18;16.13;;;5.97;;
21671;SDS011;10997;52.242;8.168;2024-01-15T09:44:19;15.70;;;5.40;;
21671;SDS011;10997;52.242;8.168;2024-01-15T09:49:21;14.00;;;5.32;;
21671;SDS011;10997;52.242;8.168;2024-01-15T09:54:22;15.05;;;4.85;;
21671;SDS011;10997;52.242;8.168;2024-01-15T09:59:23;11.05;;;4.40;;
21671;SDS011;10997;52.242;8.168;2024-01-15T10:04:25;9.18;;;3.63;;
21671;SDS011;10997;52.242;8.168;2024-01-15T10:09:26;15.43;;;4.15;;
21671;SDS011;10997;52.242;8.168;2024-01-15T10:14:27;12.55;;;3.50;;
21671;SDS011;10997;52.242;8.168;2024-01-15T10:19:27;11.82;;;3.60;;
21671;SDS011;10997;52.242;8.168;2024-01-15T10:24:29;11.48;;;3.60;;
21671;SDS011;10997;52.242;8.168;2024-01-15T10:29:29;15.05;;;3.35;;
21671;SDS011;10997;52.242;8.168;2024-01-15T10:34:30;9.60;;;3.25;;
21671;SDS011;10997;52.242;8.168;2024-01-15T10:39:31;13.07;;;3.13;;
21671;SDS011;10997;52.242;8.168;2024-01-15T10:44:32;10.25;;;3.30;;
21671;SDS011;10997;52.242;8.168;2024-01-15T10:49:32;7.70;;;3.00;;
21671;SDS011;10997;52.242;8.168;2024-01-15T10:54:33;8.43;;;2.15;;
21671;SDS011;10997;52.242;8.168;2024-01-15T10:59:36;14.23;;;2.88;;
21671;SDS011;10997;52.242;8.168;2024-01-15T11:04:36;9.52;;;2.50;;
21671;SDS011;10997;52.242;8.168;2024-01-15T11:09:37;12.27;;;2.67;;
21671;SDS011;10997;52.242;8.168;2024-01-15T11:19:43;8.52;;;2.85;;
21671;SDS011;10997;52.242;8.168;2024-01-15T11:24:44;6.53;;;2.28;;
21671;SDS011;10997;52.242;8.168;2024-01-15T11:29:45;9.77;;;2.38;;
21671;SDS011;10997;52.242;8.168;2024-01-15T11:34:53;9.15;;;2.40;;
21671;SDS011;10997;52.242;8.168;2024-01-15T11:40:03;9.80;;;2.13;;
21671;SDS011;10997;52.242;8.168;2024-01-15T11:45:04;8.15;;;2.47;;
21671;SDS011;10997;52.242;8.168;2024-01-15T11:50:05;10.07;;;2.78;;
21671;SDS011;10997;52.242;8.168;2024-01-15T12:00:22;6.88;;;2.47;;
21671;SDS011;10997;52.242;8.168;2024-01-15T12:05:23;12.00;;;2.75;;
21671;SDS011;10997;52.242;8.168;2024-01-15T12:10:24;7.20;;;2.47;;
21671;SDS011;10997;52.242;8.168;2024-01-15T12:15:26;7.72;;;2.60;;
21671;SDS011;10997;52.242;8.168;2024-01-15T12:20:31;8.05;;;2.45;;
21671;SDS011;10997;52.242;8.168;2024-01-15T12:25:32;13.23;;;3.28;;
21671;SDS011;10997;52.242;8.168;2024-01-15T12:30:34;7.07;;;2.60;;
21671;SDS011;10997;52.242;8.168;2024-01-15T12:35:37;9.13;;;3.00;;
21671;SDS011;10997;52.242;8.168;2024-01-15T12:40:37;9.88;;;2.67;;
21671;SDS011;10997;52.242;8.168;2024-01-15T12:45:38;8.20;;;2.83;;
21671;SDS011;10997;52.242;8.168;2024-01-15T12:50:39;6.68;;;2.13;;
21671;SDS011;10997;52.242;8.168;2024-01-15T12:55:39;8.82;;;2.42;;
21671;SDS011;10997;52.242;8.168;2024-01-15T13:00:40;7.00;;;2.08;;
21671;SDS011;10997;52.242;8.168;2024-01-15T13:05:40;9.52;;;2.47;;
21671;SDS011;10997;52.242;8.168;2024-01-15T13:10:41;5.72;;;2.28;;
21671;SDS011;10997;52.242;8.168;2024-01-15T13:15:44;6.78;;;2.63;;
21671;SDS011;10997;52.242;8.168;2024-01-15T13:20:45;9.15;;;2.97;;
21671;SDS011;10997;52.242;8.168;2024-01-15T13:25:46;6.28;;;2.60;;
21671;SDS011;10997;52.242;8.168;2024-01-15T13:30:46;6.57;;;2.55;;
21671;SDS011;10997;52.242;8.168;2024-01-15T13:35:47;7.85;;;2.47;;
21671;SDS011;10997;52.242;8.168;2024-01-15T13:40:50;5.63;;;1.92;;
21671;SDS011;10997;52.242;8.168;2024-01-15T13:45:50;8.35;;;2.40;;
21671;SDS011;10997;52.242;8.168;2024-01-15T13:50:52;4.85;;;1.95;;
21671;SDS011;10997;52.242;8.168;2024-01-15T13:55:53;6.07;;;1.85;;
21671;SDS011;10997;52.242;8.168;2024-01-15T14:00:54;4.43;;;1.70;;
21671;SDS011;10997;52.242;8.168;2024-01-15T14:05:54;3.58;;;1.50;;
21671;SDS011;10997;52.242;8.168;2024-01-15T14:10:55;4.60;;;1.45;;
21671;SDS011;10997;52.242;8.168;2024-01-15T14:15:57;6.72;;;1.45;;
21671;SDS011;10997;52.242;8.168;2024-01-15T14:20:57;3.90;;;1.58;;
21671;SDS011;10997;52.242;8.168;2024-01-15T14:25:58;5.82;;;1.80;;
21671;SDS011;10997;52.242;8.168;2024-01-15T14:30:59;5.97;;;1.60;;
21671;SDS011;10997;52.242;8.168;2024-01-15T14:36:00;8.30;;;1.85;;
21671;SDS011;10997;52.242;8.168;2024-01-15T14:41:00;2.72;;;1.35;;
21671;SDS011;10997;52.242;8.168;2024-01-15T14:46:01;6.13;;;1.80;;
21671;SDS011;10997;52.242;8.168;2024-01-15T14:51:02;7.32;;;1.80;;
21671;SDS011;10997;52.242;8.168;2024-01-15T14:56:03;6.07;;;2.65;;
21671;SDS011;10997;52.242;8.168;2024-01-15T15:01:04;9.43;;;2.00;;
21671;SDS011;10997;52.242;8.168;2024-01-15T15:06:04;11.95;;;2.35;;
21671;SDS011;10997;52.242;8.168;2024-01-15T15:11:07;8.65;;;2.40;;
21671;SDS011;10997;52.242;8.168;2024-01-15T15:16:08;6.65;;;1.58;;
21671;SDS011;10997;52.242;8.168;2024-01-15T15:21:11;5.22;;;1.50;;
21671;SDS011;10997;52.242;8.168;2024-01-15T15:26:12;7.00;;;1.55;;
21671;SDS011;10997;52.242;8.168;2024-01-15T15:31:13;6.47;;;1.90;;
21671;SDS011;10997;52.242;8.168;2024-01-15T15:36:14;7.32;;;1.73;;
21671;SDS011;10997;52.242;8.168;2024-01-15T15:41:15;5.68;;;1.70;;
21671;SDS011;10997;52.242;8.168;2024-01-15T15:46:15;8.40;;;2.20;;
21671;SDS011;10997;52.242;8.168;2024-01-15T15:51:16;5.60;;;1.92;;
21671;SDS011;10997;52.242;8.168;2024-01-15T15:56:17;7.53;;;2.22;;
21671;SDS011;10997;52.242;8.168;2024-01-15T16:01:18;8.13;;;1.85;;
21671;SDS011;10997;52.242;8.168;2024-01-15T16:06:18;10.35;;;2.38;;
21671;SDS011;10997;52.242;8.168;2024-01-15T16:11:19;9.75;;;2.50;;
21671;SDS011;10997;52.242;8.168;2024-01-15T16:16:20;7.93;;;3.03;;
21671;SDS011;10997;52.242;8.168;2024-01-15T16:21:20;9.85;;;2.60;;
21671;SDS011;10997;52.242;8.168;2024-01-15T16:26:21;18.60;;;3.50;;
21671;SDS011;10997;52.242;8.168;2024-01-15T16:31:22;6.15;;;2.28;;
21671;SDS011;10997;52.242;8.168;2024-01-15T16:36:22;14.10;;;2.35;;
21671;SDS011;10997;52.242;8.168;2024-01-15T16:41:25;10.00;;;2.33;;
21671;SDS011;10997;52.242;8.168;2024-01-15T16:46:25;8.85;;;2.00;;
21671;SDS011;10997;52.242;8.168;2024-01-15T16:51:26;11.65;;;2.20;;
21671;SDS011;10997;52.242;8.168;2024-01-15T16:56:26;7.82;;;2.20;;
21671;SDS011;10997;52.242;8.168;2024-01-15T17:01:27;11.43;;;2.50;;
21671;SDS011;10997;52.242;8.168;2024-01-15T17:06:28;8.13;;;1.95;;
21671;SDS011;10997;52.242;8.168;2024-01-15T17:11:28;8.98;;;1.95;;
21671;SDS011;10997;52.242;8.168;2024-01-15T17:16:29;6.85;;;2.00;;
21671;SDS011;10997;52.242;8.168;2024-01-15T17:21:29;12.05;;;2.75;;
21671;SDS011;10997;52.242;8.168;2024-01-15T17:26:30;14.80;;;3.33;;
21671;SDS011;10997;52.242;8.168;2024-01-15T17:31:31;11.38;;;3.03;;
21671;SDS011;10997;52.242;8.168;2024-01-15T17:36:31;11.95;;;2.47;;
21671;SDS011;10997;52.242;8.168;2024-01-15T17:41:32;12.52;;;2.70;;
21671;SDS011;10997;52.242;8.168;2024-01-15T17:46:33;17.77;;;3.00;;
21671;SDS011;10997;52.242;8.168;2024-01-15T17:51:34;14.60;;;3.63;;
21671;SDS011;10997;52.242;8.168;2024-01-15T17:56:35;16.63;;;3.40;;
21671;SDS011;10997;52.242;8.168;2024-01-15T18:01:36;16.60;;;2.90;;
21671;SDS011;10997;52.242;8.168;2024-01-15T18:06:41;13.27;;;2.70;;
21671;SDS011;10997;52.242;8.168;2024-01-15T18:11:42;12.40;;;2.70;;
21671;SDS011;10997;52.242;8.168;2024-01-15T18:16:44;10.50;;;2.53;;
21671;SDS011;10997;52.242;8.168;2024-01-15T18:21:48;9.02;;;2.22;;
21671;SDS011;10997;52.242;8.168;2024-01-15T18:26:50;9.52;;;2.22;;
21671;SDS011;10997;52.242;8.168;2024-01-15T18:31:54;6.53;;;2.05;;
21671;SDS011;10997;52.242;8.168;2024-01-15T18:36:55;10.57;;;2.53;;
21671;SDS011;10997;52.242;8.168;2024-01-15T18:41:56;6.15;;;2.28;;
21671;SDS011;10997;52.242;8.168;2024-01-15T18:46:57;11.02;;;2.88;;
21671;SDS011;10997;52.242;8.168;2024-01-15T18:51:58;7.85;;;2.88;;
21671;SDS011;10997;52.242;8.168;2024-01-15T18:56:59;8.35;;;2.63;;
21671;SDS011;10997;52.242;8.168;2024-01-15T19:01:59;9.82;;;2.97;;
21671;SDS011;10997;52.242;8.168;2024-01-15T19:07:00;7.60;;;2.58;;
21671;SDS011;10997;52.242;8.168;2024-01-15T19:12:01;6.63;;;2.80;;
21671;SDS011;10997;52.242;8.168;2024-01-15T19:17:02;10.45;;;2.75;;
21671;SDS011;10997;52.242;8.168;2024-01-15T19:22:04;6.97;;;3.30;;
21671;SDS011;10997;52.242;8.168;2024-01-15T19:27:05;7.32;;;2.60;;
21671;SDS011;10997;52.242;8.168;2024-01-15T19:32:05;6.07;;;2.20;;
21671;SDS011;10997;52.242;8.168;2024-01-15T19:37:06;6.95;;;2.30;;
21671;SDS011;10997;52.242;8.168;2024-01-15T19:42:07;7.53;;;2.42;;
21671;SDS011;10997;52.242;8.168;2024-01-15T19:47:07;8.40;;;2.22;;
21671;SDS011;10997;52.242;8.168;2024-01-15T19:52:09;6.18;;;2.33;;
21671;SDS011;10997;52.242;8.168;2024-01-15T19:57:10;5.47;;;2.17;;
21671;SDS011;10997;52.242;8.168;2024-01-15T20:02:10;8.02;;;2.38;;
21671;SDS011;10997;52.242;8.168;2024-01-15T20:07:11;6.43;;;2.17;;
21671;SDS011;10997;52.242;8.168;2024-01-15T20:12:12;6.30;;;2.10;;
21671;SDS011;10997;52.242;8.168;2024-01-15T20:17:12;8.35;;;2.05;;
21671;SDS011;10997;52.242;8.168;2024-01-15T20:22:13;7.80;;;2.17;;
21671;SDS011;10997;52.242;8.168;2024-01-15T20:27:14;6.13;;;2.15;;
21671;SDS011;10997;52.242;8.168;2024-01-15T20:32:16;5.68;;;2.05;;
21671;SDS011;10997;52.242;8.168;2024-01-15T20:37:18;7.88;;;1.90;;
21671;SDS011;10997;52.242;8.168;2024-01-15T20:42:19;9.10;;;1.90;;
21671;SDS011;10997;52.242;8.168;2024-01-15T20:47:19;6.82;;;1.85;;
21671;SDS011;10997;52.242;8.168;2024-01-15T20:52:20;4.28;;;1.70;;
21671;SDS011;10997;52.242;8.168;2024-01-15T20:57:21;10.77;;;1.92;;
21671;SDS011;10997;52.242;8.168;2024-01-15T21:02:22;5.43;;;1.65;;
21671;SDS011;10997;52.242;8.168;2024-01-15T21:07:22;4.90;;;1.45;;
21671;SDS011;10997;52.242;8.168;2024-01-15T21:12:23;7.43;;;1.77;;
21671;SDS011;10997;52.242;8.168;2024-01-15T21:17:24;6.97;;;1.90;;
21671;SDS011;10997;52.242;8.168;2024-01-15T21:22:25;10.32;;;2.28;;
21671;SDS011;10997;52.242;8.168;2024-01-15T21:27:28;3.35;;;1.65;;
21671;SDS011;10997;52.242;8.168;2024-01-15T21:32:30;9.65;;;2.33;;
21671;SDS011;10997;52.242;8.168;2024-01-15T21:37:31;4.57;;;2.05;;
21671;SDS011;10997;52.242;8.168;2024-01-15T21:42:31;7.65;;;2.60;;
21671;SDS011;10997;52.242;8.168;2024-01-15T21:47:35;8.77;;;1.80;;
21671;SDS011;10997;52.242;8.168;2024-01-15T21:52:36;3.70;;;1.50;;
21671;SDS011;10997;52.242;8.168;2024-01-15T21:57:37;3.13;;;1.65;;
21671;SDS011;10997;52.242;8.168;2024-01-15T22:02:38;7.47;;;1.73;;
21671;SDS011;10997;52.242;8.168;2024-01-15T22:07:41;6.43;;;1.33;;
21671;SDS011;10997;52.242;8.168;2024-01-15T22:12:42;6.40;;;1.85;;
21671;SDS011;10997;52.242;8.168;2024-01-15T22:17:42;6.18;;;1.88;;
21671;SDS011;10997;52.242;8.168;2024-01-15T22:22:43;10.52;;;2.42;;
21671;SDS011;10997;52.242;8.168;2024-01-15T22:27:44;9.52;;;2.25;;
21671;SDS011;10997;52.242;8.168;2024-01-15T22:32:44;7.63;;;2.05;;
21671;SDS011;10997;52.242;8.168;2024-01-15T22:37:46;7.60;;;2.05;;
21671;SDS011;10997;52.242;8.168;2024-01-15T22:42:47;8.48;;;2.30;;
21671;SDS011;10997;52.242;8.168;2024-01-15T22:47:47;6.75;;;2.22;;
21671;SDS011;10997;52.242;8.168;2024-01-15T22:52:48;12.15;;;2.40;;
21671;SDS011;10997;52.242;8.168;2024-01-15T22:57:49;9.75;;;2.17;;
21671;SDS011;10997;52.242;8.168;2024-01-15T23:02:49;12.50;;;2.03;;
21671;SDS011;10997;52.242;8.168;2024-01-15T23:07:51;9.40;;;2.65;;
21671;SDS011;10997;52.242;8.168;2024-01-15T23:12:52;11.40;;;2.42;;
21671;SDS011;10997;52.242;8.168;2024-01-15T23:17:53;12.25;;;2.28;;
21671;SDS011;10997;52.242;8.168;2024-01-15T23:22:56;4.80;;;1.80;;
21671;SDS011;10997;52.242;8.168;2024-01-15T23:27:56;9.63;;;2.35;;
21671;SDS011;10997;52.242;8.168;2024-01-15T23:32:57;15.13;;;2.15;;
21671;SDS011;10997;52.242;8.168;2024-01-15T23:37:57;8.73;;;2.15;;
21671;SDS011;10997;52.242;8.168;2024-01-15T23:42:58;7.50;;;2.42;;
21671;SDS011;10997;52.242;8.168;2024-01-15T23:47:59;8.63;;;2.20;;
21671;SDS011;10997;52.242;8.168;2024-01-15T23:52:59;8.63;;;1.75;;
21671;SDS011;10997;52.242;8.168;2024-01-15T23:58:00;10.15;;;1.80;;
